Airfield :
LOGIN :

Register | Disclaimer

   EN    FR    IT 

 










Legend :    VFR   Marginal VFR   IFR   Intensive IFR   Very Intensive IFR
Visi :
Ceiling :
>= 8 km
>= 3000ft
5 to 8 km
1000 to 3000 ft
1500m to 5 km
500 to 1000 ft
800 to 1500m
200 to 500 ft
< 800m
< 200 ft
Symbols :   Thunderstorms  Fog  Heavy snow  Heavy precipitations  Wind > 20 kt
SIGMETs :     Misc.  Thunderstorms  Icing  Turbulence  Mountain Waves  Volcanic Ashes






- Airport Elevation : 117 ft
- IATA code : NWI


EGSH - Norwich

CURRENT METAR :
  • 090350Z AUTO 17009KT 130V220 9999 NCD 12/09 Q0998

EXPIRED METARs :
  • 090320Z AUTO 17009KT 130V220 9999 NCD 12/09 Q0998
  • 090250Z AUTO 17009KT 140V220 9999 NCD 11/09 Q0999
  • 090220Z AUTO 17008KT 120V210 9999 NCD 11/09 Q0999
  • 090150Z AUTO 17008KT 140V200 9999 NCD 11/09 Q0999
  • 090120Z AUTO 17008KT 130V220 9999 NCD 12/09 Q0999

TAF TAF EGSH
Valid from the 09 at 03:00 until the 09 at 12:00 UTC


090156Z 0903/0912 18010KT 9999 FEW025
PROB30
TEMPO 0903/0906 19015G25KT
PROB30
TEMPO 0905/0908 BKN014
ATIS : +44 1603 420 640



MET'MAP, your aeronautical weather chart ! - Copyright ORBIFLY December 2007 - Disclaimer

ORBIFLY MET'MAP TEAM :

Programming & Development : Alexandra Zaïnal
Concept & original design : Baudouin d'Aumeries
Assistance for programming : Marc-Olivier Méhu
Technical & hardware support : Manuel Goepfert

Contact : metmap@orbifly.com




SOURCES & CREDITS :

   NOAA